sensor_id;sensor_type;location;lat;lon;timestamp;P1;durP1;ratioP1;P2;durP2;ratioP2
12721;SDS011;6425;50.316;8.114;2022-09-13T00:03:14;12.73;;;8.87;;
12721;SDS011;6425;50.316;8.114;2022-09-13T00:08:17;18.33;;;9.30;;
12721;SDS011;6425;50.316;8.114;2022-09-13T00:13:17;16.03;;;9.47;;
12721;SDS011;6425;50.316;8.114;2022-09-13T00:18:18;11.83;;;9.13;;
12721;SDS011;6425;50.316;8.114;2022-09-13T00:23:20;14.27;;;9.10;;
12721;SDS011;6425;50.316;8.114;2022-09-13T00:28:20;11.67;;;9.73;;
12721;SDS011;6425;50.316;8.114;2022-09-13T00:33:20;13.33;;;8.77;;
12721;SDS011;6425;50.316;8.114;2022-09-13T00:38:22;11.90;;;8.63;;
12721;SDS011;6425;50.316;8.114;2022-09-13T00:43:39;14.57;;;9.53;;
12721;SDS011;6425;50.316;8.114;2022-09-13T00:48:42;12.87;;;9.53;;
12721;SDS011;6425;50.316;8.114;2022-09-13T00:53:48;15.17;;;9.63;;
12721;SDS011;6425;50.316;8.114;2022-09-13T00:58:52;9.97;;;8.97;;
12721;SDS011;6425;50.316;8.114;2022-09-13T01:03:56;12.90;;;10.53;;
12721;SDS011;6425;50.316;8.114;2022-09-13T01:08:58;15.20;;;10.27;;
12721;SDS011;6425;50.316;8.114;2022-09-13T01:14:01;15.20;;;10.13;;
12721;SDS011;6425;50.316;8.114;2022-09-13T01:19:02;14.63;;;9.80;;
12721;SDS011;6425;50.316;8.114;2022-09-13T01:30:01;17.33;;;9.23;;
12721;SDS011;6425;50.316;8.114;2022-09-13T01:35:06;15.40;;;9.77;;
12721;SDS011;6425;50.316;8.114;2022-09-13T01:40:18;10.87;;;9.20;;
12721;SDS011;6425;50.316;8.114;2022-09-13T01:45:34;13.23;;;9.23;;
12721;SDS011;6425;50.316;8.114;2022-09-13T01:50:41;13.23;;;10.20;;
12721;SDS011;6425;50.316;8.114;2022-09-13T01:55:46;12.03;;;8.73;;
12721;SDS011;6425;50.316;8.114;2022-09-13T02:00:53;10.73;;;9.20;;
12721;SDS011;6425;50.316;8.114;2022-09-13T02:06:02;13.40;;;8.40;;
12721;SDS011;6425;50.316;8.114;2022-09-13T02:11:08;11.63;;;9.50;;
12721;SDS011;6425;50.316;8.114;2022-09-13T02:16:14;13.80;;;9.57;;
12721;SDS011;6425;50.316;8.114;2022-09-13T02:21:19;14.20;;;10.10;;
12721;SDS011;6425;50.316;8.114;2022-09-13T02:26:24;11.70;;;9.40;;
12721;SDS011;6425;50.316;8.114;2022-09-13T02:31:30;12.17;;;8.73;;
12721;SDS011;6425;50.316;8.114;2022-09-13T02:36:34;15.03;;;9.57;;
12721;SDS011;6425;50.316;8.114;2022-09-13T02:41:38;10.90;;;9.70;;
12721;SDS011;6425;50.316;8.114;2022-09-13T02:46:57;11.30;;;9.30;;
12721;SDS011;6425;50.316;8.114;2022-09-13T02:52:08;11.00;;;9.30;;
12721;SDS011;6425;50.316;8.114;2022-09-13T02:57:19;13.53;;;9.57;;
12721;SDS011;6425;50.316;8.114;2022-09-13T03:02:30;13.43;;;10.27;;
12721;SDS011;6425;50.316;8.114;2022-09-13T03:07:32;13.63;;;11.03;;
12721;SDS011;6425;50.316;8.114;2022-09-13T03:12:37;13.57;;;10.30;;
12721;SDS011;6425;50.316;8.114;2022-09-13T03:17:58;13.37;;;10.93;;
12721;SDS011;6425;50.316;8.114;2022-09-13T03:28:38;12.67;;;10.63;;
12721;SDS011;6425;50.316;8.114;2022-09-13T03:33:47;16.30;;;10.80;;
12721;SDS011;6425;50.316;8.114;2022-09-13T03:38:55;18.33;;;12.17;;
12721;SDS011;6425;50.316;8.114;2022-09-13T03:44:01;18.57;;;12.23;;
12721;SDS011;6425;50.316;8.114;2022-09-13T03:49:07;16.63;;;11.40;;
12721;SDS011;6425;50.316;8.114;2022-09-13T03:54:10;15.03;;;11.93;;
12721;SDS011;6425;50.316;8.114;2022-09-13T03:59:17;19.53;;;11.43;;
12721;SDS011;6425;50.316;8.114;2022-09-13T04:04:19;14.27;;;10.40;;
12721;SDS011;6425;50.316;8.114;2022-09-13T04:09:19;16.17;;;10.10;;
12721;SDS011;6425;50.316;8.114;2022-09-13T04:14:20;14.70;;;10.90;;
12721;SDS011;6425;50.316;8.114;2022-09-13T04:19:22;13.37;;;10.60;;
12721;SDS011;6425;50.316;8.114;2022-09-13T04:24:24;15.70;;;10.80;;
12721;SDS011;6425;50.316;8.114;2022-09-13T04:29:25;14.40;;;10.57;;
12721;SDS011;6425;50.316;8.114;2022-09-13T04:34:27;15.90;;;10.17;;
12721;SDS011;6425;50.316;8.114;2022-09-13T04:39:28;14.43;;;10.63;;
12721;SDS011;6425;50.316;8.114;2022-09-13T04:44:28;15.33;;;11.53;;
12721;SDS011;6425;50.316;8.114;2022-09-13T04:49:30;14.03;;;11.00;;
12721;SDS011;6425;50.316;8.114;2022-09-13T04:54:30;16.67;;;10.80;;
12721;SDS011;6425;50.316;8.114;2022-09-13T04:59:31;13.20;;;9.93;;
12721;SDS011;6425;50.316;8.114;2022-09-13T05:04:32;15.57;;;11.50;;
12721;SDS011;6425;50.316;8.114;2022-09-13T05:09:33;15.47;;;10.63;;
12721;SDS011;6425;50.316;8.114;2022-09-13T05:14:33;15.87;;;10.47;;
12721;SDS011;6425;50.316;8.114;2022-09-13T05:19:35;18.27;;;10.63;;
12721;SDS011;6425;50.316;8.114;2022-09-13T05:24:35;16.60;;;11.20;;
12721;SDS011;6425;50.316;8.114;2022-09-13T05:29:36;15.33;;;10.63;;
12721;SDS011;6425;50.316;8.114;2022-09-13T05:34:37;15.60;;;11.83;;
12721;SDS011;6425;50.316;8.114;2022-09-13T05:39:38;15.90;;;11.37;;
12721;SDS011;6425;50.316;8.114;2022-09-13T05:44:38;19.77;;;11.97;;
12721;SDS011;6425;50.316;8.114;2022-09-13T05:49:40;15.03;;;11.80;;
12721;SDS011;6425;50.316;8.114;2022-09-13T05:54:40;14.30;;;11.13;;
12721;SDS011;6425;50.316;8.114;2022-09-13T05:59:41;19.00;;;14.33;;
12721;SDS011;6425;50.316;8.114;2022-09-13T06:04:43;16.60;;;13.33;;
12721;SDS011;6425;50.316;8.114;2022-09-13T06:09:43;17.23;;;13.47;;
12721;SDS011;6425;50.316;8.114;2022-09-13T06:14:43;10.30;;;9.20;;
12721;SDS011;6425;50.316;8.114;2022-09-13T06:19:45;12.60;;;8.57;;
12721;SDS011;6425;50.316;8.114;2022-09-13T06:24:45;12.50;;;9.53;;
12721;SDS011;6425;50.316;8.114;2022-09-13T06:29:46;13.53;;;8.60;;
12721;SDS011;6425;50.316;8.114;2022-09-13T06:34:48;12.17;;;8.97;;
12721;SDS011;6425;50.316;8.114;2022-09-13T06:39:48;14.10;;;8.87;;
12721;SDS011;6425;50.316;8.114;2022-09-13T06:44:48;10.33;;;8.93;;
12721;SDS011;6425;50.316;8.114;2022-09-13T06:49:50;12.77;;;8.57;;
12721;SDS011;6425;50.316;8.114;2022-09-13T06:54:51;12.23;;;9.50;;
12721;SDS011;6425;50.316;8.114;2022-09-13T06:59:51;17.57;;;11.00;;
12721;SDS011;6425;50.316;8.114;2022-09-13T07:04:53;14.37;;;9.37;;
12721;SDS011;6425;50.316;8.114;2022-09-13T07:09:53;10.97;;;9.00;;
12721;SDS011;6425;50.316;8.114;2022-09-13T07:14:54;11.73;;;8.33;;
12721;SDS011;6425;50.316;8.114;2022-09-13T07:19:55;10.37;;;9.27;;
12721;SDS011;6425;50.316;8.114;2022-09-13T07:24:56;11.63;;;8.63;;
12721;SDS011;6425;50.316;8.114;2022-09-13T07:29:56;13.37;;;9.90;;
12721;SDS011;6425;50.316;8.114;2022-09-13T07:34:58;13.90;;;10.00;;
12721;SDS011;6425;50.316;8.114;2022-09-13T07:39:58;13.30;;;10.23;;
12721;SDS011;6425;50.316;8.114;2022-09-13T07:44:59;15.60;;;10.53;;
12721;SDS011;6425;50.316;8.114;2022-09-13T07:50:00;14.30;;;9.90;;
12721;SDS011;6425;50.316;8.114;2022-09-13T07:55:01;22.17;;;10.70;;
12721;SDS011;6425;50.316;8.114;2022-09-13T08:00:02;14.37;;;9.97;;
12721;SDS011;6425;50.316;8.114;2022-09-13T08:05:13;18.23;;;10.60;;
12721;SDS011;6425;50.316;8.114;2022-09-13T08:10:13;17.73;;;10.50;;
12721;SDS011;6425;50.316;8.114;2022-09-13T08:15:14;15.97;;;11.30;;
12721;SDS011;6425;50.316;8.114;2022-09-13T08:20:15;12.07;;;9.53;;
12721;SDS011;6425;50.316;8.114;2022-09-13T08:25:16;11.77;;;8.63;;
12721;SDS011;6425;50.316;8.114;2022-09-13T08:30:16;10.90;;;7.90;;
12721;SDS011;6425;50.316;8.114;2022-09-13T08:35:18;13.80;;;7.57;;
12721;SDS011;6425;50.316;8.114;2022-09-13T08:40:19;9.83;;;6.93;;
12721;SDS011;6425;50.316;8.114;2022-09-13T08:45:19;8.63;;;7.17;;
12721;SDS011;6425;50.316;8.114;2022-09-13T08:50:22;7.73;;;6.90;;
12721;SDS011;6425;50.316;8.114;2022-09-13T08:55:28;10.23;;;8.80;;
12721;SDS011;6425;50.316;8.114;2022-09-13T09:00:43;9.23;;;7.67;;
12721;SDS011;6425;50.316;8.114;2022-09-13T09:05:50;11.87;;;8.07;;
12721;SDS011;6425;50.316;8.114;2022-09-13T09:10:51;10.30;;;8.17;;
12721;SDS011;6425;50.316;8.114;2022-09-13T09:15:55;9.57;;;8.07;;
12721;SDS011;6425;50.316;8.114;2022-09-13T09:21:01;12.20;;;7.53;;
12721;SDS011;6425;50.316;8.114;2022-09-13T09:26:10;12.87;;;8.23;;
12721;SDS011;6425;50.316;8.114;2022-09-13T09:31:14;8.17;;;7.37;;
12721;SDS011;6425;50.316;8.114;2022-09-13T09:36:25;11.43;;;8.07;;
12721;SDS011;6425;50.316;8.114;2022-09-13T09:41:32;8.43;;;7.23;;
12721;SDS011;6425;50.316;8.114;2022-09-13T09:46:35;11.27;;;6.77;;
12721;SDS011;6425;50.316;8.114;2022-09-13T09:51:39;12.83;;;6.67;;
12721;SDS011;6425;50.316;8.114;2022-09-13T09:56:40;10.57;;;7.27;;
12721;SDS011;6425;50.316;8.114;2022-09-13T10:01:51;9.17;;;6.90;;
12721;SDS011;6425;50.316;8.114;2022-09-13T10:12:24;7.83;;;5.23;;
12721;SDS011;6425;50.316;8.114;2022-09-13T10:17:27;9.33;;;5.47;;
12721;SDS011;6425;50.316;8.114;2022-09-13T10:22:30;10.27;;;5.00;;
12721;SDS011;6425;50.316;8.114;2022-09-13T10:27:32;6.80;;;5.03;;
12721;SDS011;6425;50.316;8.114;2022-09-13T10:32:35;8.70;;;4.50;;
12721;SDS011;6425;50.316;8.114;2022-09-13T10:37:36;4.90;;;3.70;;
12721;SDS011;6425;50.316;8.114;2022-09-13T10:42:49;8.57;;;4.73;;
12721;SDS011;6425;50.316;8.114;2022-09-13T10:47:52;7.57;;;3.57;;
12721;SDS011;6425;50.316;8.114;2022-09-13T10:52:56;3.13;;;2.57;;
12721;SDS011;6425;50.316;8.114;2022-09-13T10:58:15;4.80;;;2.10;;
12721;SDS011;6425;50.316;8.114;2022-09-13T11:03:21;2.07;;;1.60;;
12721;SDS011;6425;50.316;8.114;2022-09-13T11:08:35;2.60;;;2.10;;
12721;SDS011;6425;50.316;8.114;2022-09-13T11:13:53;4.07;;;2.37;;
12721;SDS011;6425;50.316;8.114;2022-09-13T11:19:11;6.20;;;3.37;;
12721;SDS011;6425;50.316;8.114;2022-09-13T11:24:40;4.47;;;2.17;;
12721;SDS011;6425;50.316;8.114;2022-09-13T11:30:02;2.70;;;1.90;;
12721;SDS011;6425;50.316;8.114;2022-09-13T11:40:37;0.90;;;0.90;;
12721;SDS011;6425;50.316;8.114;2022-09-13T11:45:46;3.07;;;0.80;;
12721;SDS011;6425;50.316;8.114;2022-09-13T11:50:59;2.83;;;1.00;;
12721;SDS011;6425;50.316;8.114;2022-09-13T11:56:12;2.87;;;1.20;;
12721;SDS011;6425;50.316;8.114;2022-09-13T12:01:16;1.90;;;0.73;;
12721;SDS011;6425;50.316;8.114;2022-09-13T12:06:21;0.60;;;0.60;;
12721;SDS011;6425;50.316;8.114;2022-09-13T12:11:26;0.70;;;0.70;;
12721;SDS011;6425;50.316;8.114;2022-09-13T12:16:31;0.70;;;0.70;;
12721;SDS011;6425;50.316;8.114;2022-09-13T12:21:35;0.90;;;0.83;;
12721;SDS011;6425;50.316;8.114;2022-09-13T12:26:40;1.90;;;0.80;;
12721;SDS011;6425;50.316;8.114;2022-09-13T12:31:46;0.50;;;0.50;;
12721;SDS011;6425;50.316;8.114;2022-09-13T12:36:59;0.67;;;0.67;;
12721;SDS011;6425;50.316;8.114;2022-09-13T12:42:16;1.40;;;1.30;;
12721;SDS011;6425;50.316;8.114;2022-09-13T12:47:41;1.00;;;0.90;;
12721;SDS011;6425;50.316;8.114;2022-09-13T12:52:57;1.20;;;1.10;;
12721;SDS011;6425;50.316;8.114;2022-09-13T12:58:27;1.70;;;0.90;;
12721;SDS011;6425;50.316;8.114;2022-09-13T13:03:40;4.93;;;0.90;;
12721;SDS011;6425;50.316;8.114;2022-09-13T13:08:47;0.77;;;0.70;;
12721;SDS011;6425;50.316;8.114;2022-09-13T13:13:56;0.70;;;0.70;;
12721;SDS011;6425;50.316;8.114;2022-09-13T13:18:58;0.50;;;0.50;;
12721;SDS011;6425;50.316;8.114;2022-09-13T13:29:39;1.27;;;0.30;;
12721;SDS011;6425;50.316;8.114;2022-09-13T13:34:41;0.77;;;0.50;;
12721;SDS011;6425;50.316;8.114;2022-09-13T13:39:46;0.60;;;0.60;;
12721;SDS011;6425;50.316;8.114;2022-09-13T13:50:18;1.27;;;0.40;;
12721;SDS011;6425;50.316;8.114;2022-09-13T13:55:27;1.63;;;0.40;;
12721;SDS011;6425;50.316;8.114;2022-09-13T14:00:44;2.00;;;0.30;;
12721;SDS011;6425;50.316;8.114;2022-09-13T14:05:50;3.27;;;0.70;;
12721;SDS011;6425;50.316;8.114;2022-09-13T14:10:58;0.43;;;0.40;;
12721;SDS011;6425;50.316;8.114;2022-09-13T14:16:08;1.67;;;0.77;;
12721;SDS011;6425;50.316;8.114;2022-09-13T14:21:20;4.23;;;0.60;;
12721;SDS011;6425;50.316;8.114;2022-09-13T14:26:24;2.70;;;0.80;;
12721;SDS011;6425;50.316;8.114;2022-09-13T14:31:26;2.13;;;0.47;;
12721;SDS011;6425;50.316;8.114;2022-09-13T14:36:26;1.70;;;0.50;;
12721;SDS011;6425;50.316;8.114;2022-09-13T14:41:31;1.27;;;0.60;;
12721;SDS011;6425;50.316;8.114;2022-09-13T14:46:36;1.50;;;0.40;;
12721;SDS011;6425;50.316;8.114;2022-09-13T14:51:42;3.03;;;0.60;;
12721;SDS011;6425;50.316;8.114;2022-09-13T14:56:46;0.90;;;0.40;;
12721;SDS011;6425;50.316;8.114;2022-09-13T15:01:51;2.13;;;0.60;;
12721;SDS011;6425;50.316;8.114;2022-09-13T15:07:05;1.10;;;0.50;;
12721;SDS011;6425;50.316;8.114;2022-09-13T15:12:17;2.73;;;0.97;;
12721;SDS011;6425;50.316;8.114;2022-09-13T15:17:23;1.07;;;0.50;;
12721;SDS011;6425;50.316;8.114;2022-09-13T15:22:24;2.30;;;0.77;;
12721;SDS011;6425;50.316;8.114;2022-09-13T15:27:30;2.23;;;0.60;;
12721;SDS011;6425;50.316;8.114;2022-09-13T15:32:33;1.40;;;0.90;;
12721;SDS011;6425;50.316;8.114;2022-09-13T15:37:39;2.20;;;0.60;;
12721;SDS011;6425;50.316;8.114;2022-09-13T15:42:40;2.23;;;0.50;;
12721;SDS011;6425;50.316;8.114;2022-09-13T15:47:47;2.07;;;0.60;;
12721;SDS011;6425;50.316;8.114;2022-09-13T15:52:48;1.27;;;0.50;;
12721;SDS011;6425;50.316;8.114;2022-09-13T15:57:48;2.30;;;0.70;;
12721;SDS011;6425;50.316;8.114;2022-09-13T16:02:51;1.70;;;0.57;;
12721;SDS011;6425;50.316;8.114;2022-09-13T16:07:52;1.40;;;0.70;;
12721;SDS011;6425;50.316;8.114;2022-09-13T16:12:52;2.87;;;0.80;;
12721;SDS011;6425;50.316;8.114;2022-09-13T16:17:54;5.90;;;0.97;;
12721;SDS011;6425;50.316;8.114;2022-09-13T16:22:54;2.37;;;0.80;;
12721;SDS011;6425;50.316;8.114;2022-09-13T16:27:55;4.07;;;0.77;;
12721;SDS011;6425;50.316;8.114;2022-09-13T16:32:57;6.57;;;0.93;;
12721;SDS011;6425;50.316;8.114;2022-09-13T16:37:57;1.60;;;0.60;;
12721;SDS011;6425;50.316;8.114;2022-09-13T16:42:58;1.77;;;0.80;;
12721;SDS011;6425;50.316;8.114;2022-09-13T16:48:00;2.60;;;0.70;;
12721;SDS011;6425;50.316;8.114;2022-09-13T16:53:00;1.57;;;0.83;;
12721;SDS011;6425;50.316;8.114;2022-09-13T16:58:01;1.63;;;1.03;;
12721;SDS011;6425;50.316;8.114;2022-09-13T17:03:03;6.17;;;1.00;;
12721;SDS011;6425;50.316;8.114;2022-09-13T17:08:03;1.40;;;1.00;;
12721;SDS011;6425;50.316;8.114;2022-09-13T17:13:04;1.80;;;1.20;;
12721;SDS011;6425;50.316;8.114;2022-09-13T17:18:05;5.33;;;0.90;;
12721;SDS011;6425;50.316;8.114;2022-09-13T17:23:06;4.50;;;1.30;;
12721;SDS011;6425;50.316;8.114;2022-09-13T17:28:07;1.60;;;0.80;;
12721;SDS011;6425;50.316;8.114;2022-09-13T17:33:09;2.20;;;0.83;;
12721;SDS011;6425;50.316;8.114;2022-09-13T17:38:09;1.97;;;0.90;;
12721;SDS011;6425;50.316;8.114;2022-09-13T17:43:10;3.30;;;1.10;;
12721;SDS011;6425;50.316;8.114;2022-09-13T17:48:14;3.47;;;1.10;;
12721;SDS011;6425;50.316;8.114;2022-09-13T17:53:14;3.10;;;1.07;;
12721;SDS011;6425;50.316;8.114;2022-09-13T17:58:15;6.30;;;1.40;;
12721;SDS011;6425;50.316;8.114;2022-09-13T18:03:17;4.20;;;1.33;;
12721;SDS011;6425;50.316;8.114;2022-09-13T18:08:17;7.27;;;1.60;;
12721;SDS011;6425;50.316;8.114;2022-09-13T18:13:17;2.37;;;1.23;;
12721;SDS011;6425;50.316;8.114;2022-09-13T18:18:19;4.73;;;1.93;;
12721;SDS011;6425;50.316;8.114;2022-09-13T18:23:20;5.73;;;2.33;;
12721;SDS011;6425;50.316;8.114;2022-09-13T18:28:20;6.20;;;2.17;;
12721;SDS011;6425;50.316;8.114;2022-09-13T18:33:22;4.60;;;1.83;;
12721;SDS011;6425;50.316;8.114;2022-09-13T18:38:23;6.87;;;2.10;;
12721;SDS011;6425;50.316;8.114;2022-09-13T18:43:24;3.53;;;2.23;;
12721;SDS011;6425;50.316;8.114;2022-09-13T18:48:28;4.50;;;2.30;;
12721;SDS011;6425;50.316;8.114;2022-09-13T18:53:29;3.00;;;2.00;;
12721;SDS011;6425;50.316;8.114;2022-09-13T18:58:33;5.93;;;3.20;;
12721;SDS011;6425;50.316;8.114;2022-09-13T19:03:36;5.63;;;2.80;;
12721;SDS011;6425;50.316;8.114;2022-09-13T19:08:37;7.07;;;2.57;;
12721;SDS011;6425;50.316;8.114;2022-09-13T19:13:37;3.80;;;2.40;;
12721;SDS011;6425;50.316;8.114;2022-09-13T19:18:40;10.57;;;3.03;;
12721;SDS011;6425;50.316;8.114;2022-09-13T19:23:41;7.17;;;3.70;;
12721;SDS011;6425;50.316;8.114;2022-09-13T19:28:44;4.83;;;3.00;;
12721;SDS011;6425;50.316;8.114;2022-09-13T19:33:50;7.40;;;3.37;;
12721;SDS011;6425;50.316;8.114;2022-09-13T19:38:51;10.27;;;3.60;;
12721;SDS011;6425;50.316;8.114;2022-09-13T19:43:53;6.90;;;3.33;;
12721;SDS011;6425;50.316;8.114;2022-09-13T19:48:56;3.97;;;3.10;;
12721;SDS011;6425;50.316;8.114;2022-09-13T19:53:58;6.77;;;3.50;;
12721;SDS011;6425;50.316;8.114;2022-09-13T19:58:59;6.13;;;3.90;;
12721;SDS011;6425;50.316;8.114;2022-09-13T20:04:03;8.00;;;4.60;;
12721;SDS011;6425;50.316;8.114;2022-09-13T20:09:05;6.43;;;4.50;;
12721;SDS011;6425;50.316;8.114;2022-09-13T20:14:06;7.20;;;4.53;;
12721;SDS011;6425;50.316;8.114;2022-09-13T20:19:09;6.20;;;4.30;;
12721;SDS011;6425;50.316;8.114;2022-09-13T20:24:12;4.83;;;3.77;;
12721;SDS011;6425;50.316;8.114;2022-09-13T20:29:13;6.30;;;4.50;;
12721;SDS011;6425;50.316;8.114;2022-09-13T20:34:15;8.83;;;4.77;;
12721;SDS011;6425;50.316;8.114;2022-09-13T20:39:15;6.23;;;4.20;;
12721;SDS011;6425;50.316;8.114;2022-09-13T20:44:16;8.03;;;4.90;;
12721;SDS011;6425;50.316;8.114;2022-09-13T20:49:18;7.60;;;4.17;;
12721;SDS011;6425;50.316;8.114;2022-09-13T20:54:18;7.50;;;4.73;;
12721;SDS011;6425;50.316;8.114;2022-09-13T20:59:18;7.53;;;5.20;;
12721;SDS011;6425;50.316;8.114;2022-09-13T21:04:20;8.93;;;5.57;;
12721;SDS011;6425;50.316;8.114;2022-09-13T21:09:21;7.53;;;5.27;;
12721;SDS011;6425;50.316;8.114;2022-09-13T21:14:21;9.40;;;5.47;;
12721;SDS011;6425;50.316;8.114;2022-09-13T21:19:23;8.27;;;6.30;;
12721;SDS011;6425;50.316;8.114;2022-09-13T21:24:23;9.27;;;6.17;;
12721;SDS011;6425;50.316;8.114;2022-09-13T21:29:24;9.13;;;5.97;;
12721;SDS011;6425;50.316;8.114;2022-09-13T21:34:25;10.23;;;6.23;;
12721;SDS011;6425;50.316;8.114;2022-09-13T21:39:26;10.53;;;6.93;;
12721;SDS011;6425;50.316;8.114;2022-09-13T21:44:26;15.60;;;7.37;;
12721;SDS011;6425;50.316;8.114;2022-09-13T21:49:28;9.80;;;7.13;;
12721;SDS011;6425;50.316;8.114;2022-09-13T21:54:28;10.97;;;7.57;;
12721;SDS011;6425;50.316;8.114;2022-09-13T21:59:29;9.97;;;7.03;;
12721;SDS011;6425;50.316;8.114;2022-09-13T22:04:30;6.67;;;5.80;;
12721;SDS011;6425;50.316;8.114;2022-09-13T22:09:31;9.13;;;6.27;;
12721;SDS011;6425;50.316;8.114;2022-09-13T22:14:31;6.57;;;5.97;;
12721;SDS011;6425;50.316;8.114;2022-09-13T22:19:33;7.30;;;5.40;;
12721;SDS011;6425;50.316;8.114;2022-09-13T22:24:33;6.93;;;5.40;;
12721;SDS011;6425;50.316;8.114;2022-09-13T22:29:34;6.03;;;5.27;;
12721;SDS011;6425;50.316;8.114;2022-09-13T22:34:35;9.90;;;5.47;;
12721;SDS011;6425;50.316;8.114;2022-09-13T22:39:36;8.23;;;5.47;;
12721;SDS011;6425;50.316;8.114;2022-09-13T22:44:36;13.43;;;7.57;;
12721;SDS011;6425;50.316;8.114;2022-09-13T22:49:38;9.73;;;7.80;;
12721;SDS011;6425;50.316;8.114;2022-09-13T22:54:38;9.50;;;7.73;;
12721;SDS011;6425;50.316;8.114;2022-09-13T22:59:39;7.67;;;6.80;;
12721;SDS011;6425;50.316;8.114;2022-09-13T23:04:40;11.30;;;8.03;;
12721;SDS011;6425;50.316;8.114;2022-09-13T23:09:41;13.10;;;8.03;;
12721;SDS011;6425;50.316;8.114;2022-09-13T23:14:41;10.73;;;7.50;;
12721;SDS011;6425;50.316;8.114;2022-09-13T23:19:43;9.85;;;7.45;;
12721;SDS011;6425;50.316;8.114;2022-09-13T23:24:43;10.57;;;7.67;;
12721;SDS011;6425;50.316;8.114;2022-09-13T23:29:44;11.93;;;8.27;;
12721;SDS011;6425;50.316;8.114;2022-09-13T23:34:45;17.33;;;8.63;;
12721;SDS011;6425;50.316;8.114;2022-09-13T23:39:46;12.10;;;8.83;;
12721;SDS011;6425;50.316;8.114;2022-09-13T23:44:46;11.03;;;7.57;;
12721;SDS011;6425;50.316;8.114;2022-09-13T23:49:48;8.97;;;7.80;;
12721;SDS011;6425;50.316;8.114;2022-09-13T23:54:48;12.00;;;8.60;;
12721;SDS011;6425;50.316;8.114;2022-09-13T23:59:49;12.20;;;9.20;;
